Time,TemperatureF,DewpointF,PressureIn,WindDirection,WindDirectionDegrees,WindSpeedMPH,WindSpeedGustMPH,Humidity,HourlyPrecipIn,Conditions,Clouds,dailyrainin,SoftwareType,DateUTC
2013-07-01 00:11:00,71.6,45.0,29.63,ESE,105,0.0,-999.0,39,-99.99,,,0.00,weatherlink.com 1.10,2013-07-01 06:11:00,
2013-07-01 00:26:00,71.1,45.0,29.63,ESE,122,0.0,-999.0,39,-99.99,,,0.00,weatherlink.com 1.10,2013-07-01 06:26:00,
2013-07-01 00:41:00,70.1,45.0,29.61,ESE,122,3.0,-999.0,40,-99.99,,,0.00,weatherlink.com 1.10,2013-07-01 06:41:00,
2013-07-01 00:56:00,69.6,45.0,29.63,NE,37,2.0,-999.0,41,-99.99,,,0.00,weatherlink.com 1.10,2013-07-01 06:56:00,
2013-07-01 01:11:00,68.9,45.0,29.62,ESE,110,3.0,-999.0,42,-99.99,,,0.00,weatherlink.com 1.10,2013-07-01 07:11:00,
2013-07-01 01:26:00,66.6,45.0,29.64,ENE,65,3.0,-999.0,46,-99.99,,,0.00,weatherlink.com 1.10,2013-07-01 07:26:00,
2013-07-01 01:41:00,67.9,44.0,29.63,East,86,4.0,-999.0,43,-99.99,,,0.00,weatherlink.com 1.10,2013-07-01 07:41:00,
2013-07-01 01:56:00,68.1,45.0,29.63,ENE,77,0.0,-999.0,43,-99.99,,,0.00,weatherlink.com 1.10,2013-07-01 07:56:00,
2013-07-01 02:11:00,66.8,43.0,29.62,ENE,77,0.0,-999.0,43,-99.99,,,0.00,weatherlink.com 1.10,2013-07-01 08:11:00,
2013-07-01 02:26:00,66.4,44.0,29.63,NE,50,0.0,-999.0,44,-99.99,,,0.00,weatherlink.com 1.10,2013-07-01 08:26:00,
2013-07-01 02:41:00,63.5,44.0,29.66,NE,40,2.0,-999.0,49,-99.99,,,0.00,weatherlink.com 1.10,2013-07-01 08:41:00,
2013-07-01 02:56:00,64.7,44.0,29.68,North,8,8.0,-999.0,47,-99.99,,,0.00,weatherlink.com 1.10,2013-07-01 08:56:00,
2013-07-01 03:11:00,65.5,44.0,29.68,NNE,12,6.0,-999.0,46,-99.99,,,0.00,weatherlink.com 1.10,2013-07-01 09:11:00,
2013-07-01 03:26:00,63.1,44.0,29.68,North,359,5.0,-999.0,50,-99.99,,,0.00,weatherlink.com 1.10,2013-07-01 09:26:00,
2013-07-01 03:42:00,61.6,44.0,29.70,North,359,4.0,-999.0,52,-99.99,,,0.00,weatherlink.com 1.10,2013-07-01 09:42:00,
2013-07-01 03:57:00,61.5,43.0,29.70,North,359,10.0,-999.0,52,-99.99,,,0.00,weatherlink.com 1.10,2013-07-01 09:57:00,
2013-07-01 04:12:00,61.2,43.0,29.70,North,359,8.0,-999.0,52,-99.99,,,0.00,weatherlink.com 1.10,2013-07-01 10:12:00,
2013-07-01 04:27:00,62.0,43.0,29.70,North,359,4.0,-999.0,51,-99.99,,,0.00,weatherlink.com 1.10,2013-07-01 10:27:00,
2013-07-01 04:42:00,60.5,44.0,29.71,North,359,4.0,-999.0,55,-99.99,,,0.00,weatherlink.com 1.10,2013-07-01 10:42:00,
2013-07-01 04:57:00,60.7,44.0,29.72,North,359,3.0,-999.0,54,-99.99,,,0.00,weatherlink.com 1.10,2013-07-01 10:57:00,
2013-07-01 05:12:00,58.3,44.0,29.73,North,359,0.0,-999.0,59,-99.99,,,0.00,weatherlink.com 1.10,2013-07-01 11:12:00,
2013-07-01 05:27:00,57.8,44.0,29.74,North,359,3.0,-999.0,60,-99.99,,,0.00,weatherlink.com 1.10,2013-07-01 11:27:00,
2013-07-01 05:42:00,57.5,44.0,29.73,North,359,2.0,-999.0,61,-99.99,,,0.00,weatherlink.com 1.10,2013-07-01 11:42:00,
2013-07-01 05:58:00,56.9,44.0,29.74,North,359,0.0,-999.0,62,-99.99,,,0.00,weatherlink.com 1.10,2013-07-01 11:58:00,
2013-07-01 06:13:00,57.6,44.0,29.74,North,359,3.0,-999.0,60,-99.99,,,0.00,weatherlink.com 1.10,2013-07-01 12:13:00,
2013-07-01 06:28:00,59.2,44.0,29.74,North,359,3.0,-999.0,57,-99.99,,,0.00,weatherlink.com 1.10,2013-07-01 12:28:00,
2013-07-01 06:42:00,59.3,44.0,29.73,North,359,0.0,-999.0,57,-99.99,,,0.00,weatherlink.com 1.10,2013-07-01 12:42:00,
2013-07-01 06:58:00,61.3,45.0,29.73,North,359,2.0,-999.0,55,-99.99,,,0.00,weatherlink.com 1.10,2013-07-01 12:58:00,
2013-07-01 07:13:00,63.7,45.0,29.72,North,1,2.0,-999.0,51,-99.99,,,0.00,weatherlink.com 1.10,2013-07-01 13:13:00,
2013-07-01 07:29:00,66.6,46.0,29.72,North,1,0.0,-999.0,48,-99.99,,,0.00,weatherlink.com 1.10,2013-07-01 13:29:00,
2013-07-01 07:43:00,68.9,46.0,29.74,North,2,4.0,-999.0,44,-99.99,,,0.00,weatherlink.com 1.10,2013-07-01 13:43:00,
2013-07-01 07:58:00,71.5,48.0,29.72,East,80,4.0,-999.0,43,-99.99,,,0.00,weatherlink.com 1.10,2013-07-01 13:58:00,
2013-07-01 08:13:00,72.3,47.0,29.72,ENE,72,3.0,-999.0,40,-99.99,,,0.00,weatherlink.com 1.10,2013-07-01 14:13:00,
2013-07-01 08:29:00,73.3,48.0,29.72,East,87,1.0,-999.0,41,-99.99,,,0.00,weatherlink.com 1.10,2013-07-01 14:29:00,
2013-07-01 08:44:00,73.5,47.0,29.73,East,88,7.0,-999.0,39,-99.99,,,0.00,weatherlink.com 1.10,2013-07-01 14:44:00,
2013-07-01 08:58:00,74.2,46.0,29.73,East,85,7.0,-999.0,37,-99.99,,,0.00,weatherlink.com 1.10,2013-07-01 14:58:00,
2013-07-01 09:13:00,75.6,46.0,29.73,SSE,161,5.0,-999.0,35,-99.99,,,0.00,weatherlink.com 1.10,2013-07-01 15:13:00,
2013-07-01 09:28:00,76.3,46.0,29.72,ENE,61,6.0,-999.0,34,-99.99,,,0.00,weatherlink.com 1.10,2013-07-01 15:28:00,
2013-07-01 09:44:00,77.2,44.0,29.73,SSE,167,4.0,-999.0,31,-99.99,,,0.00,weatherlink.com 1.10,2013-07-01 15:44:00,
2013-07-01 09:59:00,78.5,45.0,29.73,ESE,103,4.0,-999.0,31,-99.99,,,0.00,weatherlink.com 1.10,2013-07-01 15:59:00,
2013-07-01 10:15:00,79.6,46.0,29.72,East,101,7.0,-999.0,31,-99.99,,,0.00,weatherlink.com 1.10,2013-07-01 16:15:00,
2013-07-01 10:28:00,79.9,45.0,29.72,East,83,3.0,-999.0,29,-99.99,,,0.00,weatherlink.com 1.10,2013-07-01 16:28:00,
2013-07-01 10:44:00,80.7,45.0,29.72,ESE,103,7.0,-999.0,28,-99.99,,,0.00,weatherlink.com 1.10,2013-07-01 16:44:00,
2013-07-01 10:59:00,81.2,44.0,29.70,SE,146,1.0,-999.0,27,-99.99,,,0.00,weatherlink.com 1.10,2013-07-01 16:59:00,
2013-07-01 11:15:00,82.2,45.0,29.70,ESE,108,2.0,-999.0,27,-99.99,,,0.00,weatherlink.com 1.10,2013-07-01 17:15:00,
2013-07-01 11:30:00,82.6,44.0,29.69,SSE,160,0.0,-999.0,26,-99.99,,,0.00,weatherlink.com 1.10,2013-07-01 17:30:00,
2013-07-01 11:45:00,84.1,45.0,29.68,South,183,0.0,-999.0,25,-99.99,,,0.00,weatherlink.com 1.10,2013-07-01 17:45:00,
2013-07-01 11:59:00,83.4,45.0,29.68,SSW,197,1.0,-999.0,26,-99.99,,,0.00,weatherlink.com 1.10,2013-07-01 17:59:00,
2013-07-01 12:14:00,84.5,45.0,29.68,SW,234,5.0,-999.0,25,-99.99,,,0.00,weatherlink.com 1.10,2013-07-01 18:14:00,
2013-07-01 12:30:00,84.9,44.0,29.66,WSW,253,0.0,-999.0,24,-99.99,,,0.00,weatherlink.com 1.10,2013-07-01 18:30:00,
2013-07-01 12:45:00,85.7,44.0,29.68,SSW,210,4.0,-999.0,23,-99.99,,,0.00,weatherlink.com 1.10,2013-07-01 18:45:00,
2013-07-01 13:01:00,85.9,43.0,29.68,SW,228,0.0,-999.0,22,-99.99,,,0.00,weatherlink.com 1.10,2013-07-01 19:01:00,
2013-07-01 13:15:00,86.7,44.0,29.67,East,90,2.0,-999.0,22,-99.99,,,0.00,weatherlink.com 1.10,2013-07-01 19:15:00,
2013-07-01 13:31:00,88.0,45.0,29.64,ESE,115,0.0,-999.0,22,-99.99,,,0.00,weatherlink.com 1.10,2013-07-01 19:31:00,
2013-07-01 13:45:00,88.6,44.0,29.63,SSW,198,5.0,-999.0,21,-99.99,,,0.00,weatherlink.com 1.10,2013-07-01 19:45:00,
2013-07-01 14:01:00,87.6,45.0,29.63,SW,215,3.0,-999.0,23,-99.99,,,0.00,weatherlink.com 1.10,2013-07-01 20:01:00,
2013-07-01 14:16:00,89.9,45.0,29.62,SSW,194,4.0,-999.0,21,-99.99,,,0.00,weatherlink.com 1.10,2013-07-01 20:16:00,
2013-07-01 14:32:00,90.5,43.0,29.60,SW,229,9.0,-999.0,19,-99.99,,,0.00,weatherlink.com 1.10,2013-07-01 20:32:00,
2013-07-01 14:45:00,89.0,43.0,29.60,SSW,211,4.0,-999.0,20,-99.99,,,0.00,weatherlink.com 1.10,2013-07-01 20:45:00,
2013-07-01 15:02:00,90.1,43.0,29.59,West,265,1.0,-999.0,19,-99.99,,,0.00,weatherlink.com 1.10,2013-07-01 21:02:00,
2013-07-01 15:15:00,91.4,42.0,29.59,West,269,0.0,-999.0,18,-99.99,,,0.00,weatherlink.com 1.10,2013-07-01 21:15:00,
2013-07-01 15:31:00,91.6,42.0,29.57,ESE,102,4.0,-999.0,18,-99.99,,,0.00,weatherlink.com 1.10,2013-07-01 21:31:00,
2013-07-01 15:46:00,91.4,42.0,29.59,WSW,257,2.0,-999.0,18,-99.99,,,0.00,weatherlink.com 1.10,2013-07-01 21:46:00,
2013-07-01 16:02:00,92.7,42.0,29.56,WSW,252,9.0,-999.0,17,-99.99,,,0.00,weatherlink.com 1.10,2013-07-01 22:02:00,
2013-07-01 16:17:00,92.9,40.0,29.55,West,276,2.0,-999.0,16,-99.99,,,0.00,weatherlink.com 1.10,2013-07-01 22:17:00,
2013-07-01 16:31:00,92.9,42.0,29.55,SW,223,4.0,-999.0,17,-99.99,,,0.00,weatherlink.com 1.10,2013-07-01 22:31:00,
2013-07-01 16:47:00,92.9,42.0,29.56,West,259,10.0,-999.0,17,-99.99,,,0.00,weatherlink.com 1.10,2013-07-01 22:47:00,
2013-07-01 17:02:00,93.2,41.0,29.54,WNW,285,13.0,-999.0,16,-99.99,,,0.00,weatherlink.com 1.10,2013-07-01 23:02:00,
2013-07-01 17:16:00,94.0,40.0,29.54,WSW,255,16.0,-999.0,15,-99.99,,,0.00,weatherlink.com 1.10,2013-07-01 23:16:00,
2013-07-01 17:33:00,94.3,38.0,29.52,SW,231,9.0,-999.0,14,-99.99,,,0.00,weatherlink.com 1.10,2013-07-01 23:33:00,
2013-07-01 17:47:00,94.0,38.0,29.52,WSW,254,12.0,-999.0,14,-99.99,,,0.00,weatherlink.com 1.10,2013-07-01 23:47:00,
2013-07-01 18:02:00,95.4,35.0,29.51,WSW,244,3.0,-999.0,12,-99.99,,,0.00,weatherlink.com 1.10,2013-07-02 00:02:00,
2013-07-01 18:17:00,95.9,36.0,29.51,WNW,302,2.0,-999.0,12,-99.99,,,0.00,weatherlink.com 1.10,2013-07-02 00:17:00,
2013-07-01 18:33:00,96.3,26.0,29.47,North,356,6.0,-999.0,8,-99.99,,,0.00,weatherlink.com 1.10,2013-07-02 00:33:00,
2013-07-01 18:48:00,95.6,28.0,29.46,North,349,10.0,-999.0,9,-99.99,,,0.00,weatherlink.com 1.10,2013-07-02 00:48:00,
2013-07-01 19:02:00,94.7,28.0,29.48,NNE,12,6.0,-999.0,9,-99.99,,,0.00,weatherlink.com 1.10,2013-07-02 01:02:00,
2013-07-01 19:18:00,91.4,38.0,29.49,ESE,105,3.0,-999.0,15,-99.99,,,0.00,weatherlink.com 1.10,2013-07-02 01:18:00,
2013-07-01 19:33:00,87.8,39.0,29.47,SE,125,7.0,-999.0,18,-99.99,,,0.00,weatherlink.com 1.10,2013-07-02 01:33:00,
2013-07-01 19:48:00,87.2,39.0,29.49,ESE,105,6.0,-999.0,18,-99.99,,,0.00,weatherlink.com 1.10,2013-07-02 01:48:00,
2013-07-01 20:03:00,86.5,38.0,29.50,ESE,108,6.0,-999.0,18,-99.99,,,0.00,weatherlink.com 1.10,2013-07-02 02:03:00,
2013-07-01 20:18:00,85.9,39.0,29.50,East,92,1.0,-999.0,19,-99.99,,,0.00,weatherlink.com 1.10,2013-07-02 02:18:00,
2013-07-01 20:33:00,84.7,39.0,29.50,East,92,5.0,-999.0,20,-99.99,,,0.00,weatherlink.com 1.10,2013-07-02 02:33:00,
2013-07-01 20:48:00,84.0,41.0,29.49,East,98,11.0,-999.0,22,-99.99,,,0.00,weatherlink.com 1.10,2013-07-02 02:48:00,
2013-07-01 21:03:00,82.4,41.0,29.52,East,93,7.0,-999.0,23,-99.99,,,0.00,weatherlink.com 1.10,2013-07-02 03:03:00,
2013-07-01 21:18:00,82.0,42.0,29.53,SE,141,10.0,-999.0,24,-99.99,,,0.00,weatherlink.com 1.10,2013-07-02 03:18:00,
2013-07-01 21:33:00,81.4,41.0,29.53,ESE,114,7.0,-999.0,24,-99.99,,,0.00,weatherlink.com 1.10,2013-07-02 03:33:00,
2013-07-01 21:48:00,81.4,41.0,29.54,SE,131,3.0,-999.0,24,-99.99,,,0.00,weatherlink.com 1.10,2013-07-02 03:48:00,
2013-07-01 22:03:00,79.9,41.0,29.57,ESE,122,5.0,-999.0,25,-99.99,,,0.00,weatherlink.com 1.10,2013-07-02 04:03:00,
2013-07-01 22:18:00,79.0,41.0,29.59,East,101,0.0,-999.0,26,-99.99,,,0.00,weatherlink.com 1.10,2013-07-02 04:18:00,
2013-07-01 22:33:00,76.7,41.0,29.59,East,101,0.0,-999.0,28,-99.99,,,0.00,weatherlink.com 1.10,2013-07-02 04:33:00,
2013-07-01 22:48:00,75.1,40.0,29.62,East,101,0.0,-999.0,28,-99.99,,,0.00,weatherlink.com 1.10,2013-07-02 04:48:00,
2013-07-01 23:03:00,74.6,41.0,29.62,ENE,59,0.0,-999.0,30,-99.99,,,0.00,weatherlink.com 1.10,2013-07-02 05:03:00,
2013-07-01 23:18:00,74.0,41.0,29.64,ENE,59,0.0,-999.0,30,-99.99,,,0.00,weatherlink.com 1.10,2013-07-02 05:18:00,
2013-07-01 23:33:00,71.3,42.0,29.65,East,94,3.0,-999.0,35,-99.99,,,0.00,weatherlink.com 1.10,2013-07-02 05:33:00,
2013-07-01 23:48:00,73.2,45.0,29.64,ESE,113,6.0,-999.0,36,-99.99,,,0.00,weatherlink.com 1.10,2013-07-02 05:48:00,